Briefing drone pour La motte-servolex

Rechercher une autre localisation

Conditions de vol :


Nous sommes le : Vendredi 07 mai 2021
Il est 02:11 UTC (04:11 LT)

Lever de soleil : 03:48 UTC (05:48 LT)
Coucher de soleil : 19:17 UTC (21:17 LT)

Météo

L'essentiel des conditions de vol

VIGILANCE MÉTÉO FRANCE - Savoie (73)
Vigilance Jaune : Pluie-inondation / Avalanches
CARTE TEMSI
CARTES DES FRONTS
METAR de LFLB
LFLB 070200Z AUTO VRB02KT 9999 -RA FEW025/// BKN031/// BKN040/// ///TCU 11/10 Q1014

Date d'émission: 07/05/2021
Heure d'émission: 02:00 UTC
Vent: Variable 2 KT (4 km/h)
Visibilité horizontale: > 10 km
Plafond :
- Peu de nuages à 2500ft (762m)
- Nuages morcelés à 3100ft (945m)
- Nuages morcelés à 4000ft (1219m)
Température: 11 °C
Point de rosée: 10 °C
Humidité: 94%
Pression (QNH): 1014 hPa
Conditions: Faible pluie
TAF de LFLB
LFLB 061903Z 0619/0715 CNL

Conditions prévues :

Heure d'émission : Bulletin éffectué le 06 à 19:00 UTC
Prévision : Valide du 06 a 19:00 UTC au 07 a 15:00 UTC
Nuages : à 0ft (0 m)
WEBCAM POUR LA MOTTE-SERVOLEX

Réglementation

Voler en sécurité

CARTES AERONAUTIQUE 1/500.000
CARTES VAC (LFLB)
SUP AIP




Chargement des AIP...
NOTAM (LA MOTTE-SERVOLEX + Terrain à proximité / FIR )




Chargement des NOTAMS...
CONTACT PREFECTURE 73


Avertissement : Les données mises à disposition sont indicatives. Oxygène Drone ne pourra être tenu responsable de dégâts causés aux biens et aux personnes.